Rockford, MI (49341)

6:44 AM EDT on July 31, 2016 (GMT -0400)
Tillicum Farms - Rockford - Cannon Township | | Change Station

Elev 873 ft 43.09 °N, 85.47 °W | Updated 14 minutes ago

Overcast
Overcast
64.1 °F
Feels Like 64.1 °F
N
0.0
Wind Variable Wind from ESE

Today
High -- | Low -- °F
--% Chance of Precip.
Yesterday
High -- | Low -- °F
Precip. -- in
Pressure 30.01 in
Visibility 10.0 miles
Clouds Overcast 600 ft
Dew Point 62 °F
Humidity 94%
Rainfall 0.00 in
Snow Depth Not available.
6:32 AM 9:04 PM
Waning Crescent, 7% visible
METAR KGRR 310953Z 07007KT 10SM OVC006 18/17 A3001 RMK AO2 SLP161 T01830167 $
Pressure 30.01 in
Visibility 10.0 miles
Clouds Overcast 600 ft
Dew Point 62 °F
Humidity 94%
Rainfall 0.00 in
Snow Depth Not available.
6:32 AM 9:04 PM
Waning Crescent, 7% visible
METAR KGRR 310953Z 07007KT 10SM OVC006 18/17 A3001 RMK AO2 SLP161 T01830167 $

10-Day Weather Forecast

Almanac

Astronomy

Jul. 31, 2016 Rise Set
Actual Time
Civil Twilight
Nautical Twilight
Astronomical Twilight
Moon
Length of Visible Light
Length of Day
Tomorrow will be .
, % of the Moon is Illuminated

Today's Extremes

State Highs State Lows

Community

WunderPhotos

Upload Photos

1,928,785 photos uploaded!

WunderBlog® & News

Nearby

Air Quality

  Air Quality AQ Index Pollutant
Not available.

Snow Depth

Station Depth Elevation

Earthquake Activity

City Distance Mag. Time & Date
Minimum magnitude displayed is 2.5.

Coastal Water Temperatures

Place Temperature

Stations

Nearby Weather Stations

Station Location Temp. Windchill Dew Point Humidity Wind Precip. Elev Updated Type
                   

Watches & Warnings

There are currently no watches in effect.